Huvudsida
METAR-TAF:

METAR-TAF

Flygplatser :

Tabas Airport

Tabas, Iran

latitud: 33-36N, longitud: 056-55E, höjd: 710 m

Aktuellt väderrapport

Denna rapport gjordes för 57 minuter sedan, klockan 14:00 UTC
Vind 4 kt från nordost
Temperatur 41°C
Fuktighet 10%
Tryck 1006 hPa

METAR: OIMT 261400Z AUTO 04004KT //// // ////// 41/04 Q1006

Tid: 19:27 (14:57 UTC)


TAF: saknas

Aktuella väderrapporter och prognoser från 4000 flygplatser (METAR- och TAF-rapporter).

De tillgängliga stationerna syns som gula och röda prickar på kartan.

För musen över prickarna för att se namnen på stationerna.

Klicka sedan för att få väderrapporter och prognoser.

För att ändra kartan: Klicka på de gröna knapparna med ett svart kors på för att zooma in; den gröna knappen med ett streck på för att zooma ut; eller på de gröna pilarna för angränsande kartor.


METAR-TAF: